Time;durP1;ratioP1;P1;durP2;ratioP2;P2;SDS_P1;SDS_P2;PMS_P1;PMS_P2;Temp;Humidity;BMP_temperature;BMP_pressure;BME280_temperature;BME280_humidity;BME280_pressure;Samples;Min_cycle;Max_cycle;Signal;HPM_P1;HPM_P2
2023/12/14 00:00:24;;;;;;;12.30;9.10;;;;;;;20.59;36.12;99723.67;102823;1295;61421;-83
2023/12/14 00:02:50;;;;;;;11.60;9.10;;;;;;;20.58;36.12;99721.42;102824;1296;61403;-82
2023/12/14 00:05:15;;;;;;;12.60;9.70;;;;;;;20.57;36.20;99716.69;102891;1298;61397;-83
2023/12/14 00:07:41;;;;;;;11.70;9.50;;;;;;;20.56;36.09;99713.36;102729;1296;61780;-83
2023/12/14 00:10:07;;;;;;;12.00;9.60;;;;;;;20.55;36.13;99714.67;102845;1296;61387;-82
2023/12/14 00:12:33;;;;;;;14.60;9.40;;;;;;;20.55;36.07;99712.92;102899;1296;61288;-82
2023/12/14 00:14:58;;;;;;;12.30;9.90;;;;;;;20.53;36.18;99713.60;102934;1294;61320;-82
2023/12/14 00:17:26;;;;;;;11.80;9.30;;;;;;;20.53;36.15;99717.06;102769;1296;74471;-82
2023/12/14 00:19:52;;;;;;;11.20;9.20;;;;;;;20.52;36.10;99726.77;102840;1296;61400;-82
2023/12/14 00:22:17;;;;;;;13.00;9.80;;;;;;;20.51;36.27;99734.19;102817;1295;61518;-82
2023/12/14 00:24:43;;;;;;;11.50;9.20;;;;;;;20.50;36.18;99728.50;102768;1296;61387;-82
2023/12/14 00:27:08;;;;;;;11.10;9.10;;;;;;;20.50;36.08;99726.02;102858;1296;61483;-82
2023/12/14 00:29:34;;;;;;;11.40;10.00;;;;;;;20.49;36.21;99718.41;102772;1299;74429;-82
2023/12/14 00:32:00;;;;;;;12.90;10.00;;;;;;;20.49;36.18;99720.45;102968;1296;61323;-82
2023/12/14 00:34:25;;;;;;;12.30;9.20;;;;;;;20.48;36.26;99717.97;102921;1294;61394;-82
2023/12/14 00:36:51;;;;;;;14.80;9.50;;;;;;;20.47;36.25;99708.40;102862;1295;62439;-82
2023/12/14 00:39:16;;;;;;;11.70;9.30;;;;;;;20.47;36.21;99716.48;102796;1296;61309;-81
2023/12/14 00:41:42;;;;;;;12.00;9.70;;;;;;;20.47;36.32;99721.29;102843;1294;73354;-82
2023/12/14 00:44:08;;;;;;;12.80;9.30;;;;;;;20.46;36.20;99722.80;102850;1294;61515;-82
2023/12/14 00:46:33;;;;;;;12.60;9.60;;;;;;;20.45;36.14;99719.84;102814;1296;61425;-83
2023/12/14 00:48:59;;;;;;;12.80;9.80;;;;;;;20.45;36.12;99717.52;102841;1294;61323;-82
2023/12/14 00:51:25;;;;;;;12.60;9.40;;;;;;;20.45;36.30;99717.02;102809;1296;61326;-83
2023/12/14 00:53:50;;;;;;;12.70;10.10;;;;;;;20.44;36.14;99711.36;103021;1296;61342;-81
2023/12/14 00:56:16;;;;;;;11.90;9.00;;;;;;;20.44;36.32;99712.83;102842;1295;61432;-81
2023/12/14 00:58:42;;;;;;;11.00;9.20;;;;;;;20.43;36.33;99714.27;102761;1296;62053;-82
2023/12/14 01:01:07;;;;;;;12.70;9.70;;;;;;;20.45;36.26;99712.21;102895;1298;61272;-83
2023/12/14 01:03:33;;;;;;;12.00;10.10;;;;;;;20.46;36.27;99718.17;102767;1296;61497;-83
2023/12/14 01:05:59;;;;;;;11.90;9.60;;;;;;;20.48;36.24;99728.05;102764;1294;61397;-83
2023/12/14 01:08:25;;;;;;;11.10;9.50;;;;;;;20.49;36.30;99727.88;102846;1295;61386;-83
2023/12/14 01:10:51;;;;;;;12.50;9.80;;;;;;;20.52;36.17;99731.96;102843;1294;61425;-82
2023/12/14 01:13:16;;;;;;;11.90;9.10;;;;;;;20.54;36.21;99729.11;102868;1296;61819;-82
2023/12/14 01:15:42;;;;;;;11.70;9.50;;;;;;;20.56;36.26;99728.74;102800;1296;61404;-82
2023/12/14 01:18:08;;;;;;;12.30;9.50;;;;;;;20.58;36.18;99732.48;102836;1294;61514;-83
2023/12/14 01:20:33;;;;;;;10.70;9.00;;;;;;;20.60;36.12;99730.34;102731;1296;61486;-82
2023/12/14 01:22:59;;;;;;;12.60;9.20;;;;;;;20.63;36.19;99722.63;102781;1296;61397;-82
2023/12/14 01:25:25;;;;;;;12.20;9.50;;;;;;;20.65;36.20;99725.52;102824;1296;72345;-82
2023/12/14 01:27:50;;;;;;;12.30;9.00;;;;;;;20.67;36.15;99727.33;102878;1296;61495;-83
2023/12/14 01:30:16;;;;;;;11.60;9.20;;;;;;;20.69;36.12;99728.74;102849;1296;61426;-83
2023/12/14 01:32:42;;;;;;;12.40;9.30;;;;;;;20.70;36.09;99723.98;103030;1298;61320;-81
2023/12/14 01:35:07;;;;;;;12.20;9.20;;;;;;;20.72;36.12;99726.15;102838;1296;61352;-84
2023/12/14 01:37:33;;;;;;;12.50;9.40;;;;;;;20.73;36.19;99727.83;102899;1300;61281;-82
2023/12/14 01:39:59;;;;;;;11.00;9.30;;;;;;;20.75;36.13;99730.88;102968;1296;62180;-83
2023/12/14 01:42:24;;;;;;;12.20;9.90;;;;;;;20.77;35.98;99724.84;102843;1296;61323;-82
2023/12/14 01:44:50;;;;;;;11.70;9.60;;;;;;;20.78;35.97;99718.84;102990;1295;62276;-82
2023/12/14 01:47:16;;;;;;;13.30;9.90;;;;;;;20.80;36.02;99725.45;102987;1296;61407;-82
2023/12/14 01:49:42;;;;;;;14.00;10.10;;;;;;;20.81;35.97;99724.30;102967;1296;61338;-82
2023/12/14 01:52:08;;;;;;;12.60;9.30;;;;;;;20.84;36.01;99719.92;103094;1298;61413;-82
2023/12/14 01:54:33;;;;;;;12.10;9.40;;;;;;;20.85;36.00;99721.61;102930;1296;61304;-82
2023/12/14 01:56:59;;;;;;;11.50;9.10;;;;;;;20.87;35.96;99718.59;102919;1295;61291;-82
2023/12/14 01:59:25;;;;;;;11.40;9.30;;;;;;;20.88;36.00;99721.88;102812;1296;61451;-82
2023/12/14 02:01:56;;;;;;;12.00;9.50;;;;;;;20.89;35.76;99719.98;102870;1300;61355;-83
2023/12/14 02:04:22;;;;;;;13.20;9.60;;;;;;;20.91;35.92;99720.61;102947;1296;61512;-82
2023/12/14 02:06:48;;;;;;;11.50;9.30;;;;;;;20.91;35.86;99718.05;102903;1296;61228;-82
2023/12/14 02:09:13;;;;;;;12.00;10.20;;;;;;;20.93;35.92;99725.27;102950;1296;61460;-82
2023/12/14 02:11:39;;;;;;;12.20;9.40;;;;;;;20.94;35.81;99721.58;102693;1298;61400;-81
2023/12/14 02:14:06;;;;;;;13.70;10.00;;;;;;;20.95;35.85;99714.91;102828;1298;61793;-82
2023/12/14 02:16:32;;;;;;;12.20;9.60;;;;;;;20.96;35.77;99714.12;102825;1296;61314;-82
2023/12/14 02:18:57;;;;;;;10.70;8.90;;;;;;;20.97;35.83;99707.77;102864;1296;61342;-83
2023/12/14 02:21:23;;;;;;;10.30;9.20;;;;;;;20.97;35.69;99710.09;102926;1298;61397;-83
2023/12/14 02:23:49;;;;;;;11.80;9.30;;;;;;;20.97;35.83;99705.37;102866;1295;74182;-82
2023/12/14 02:26:15;;;;;;;11.90;9.50;;;;;;;20.98;35.83;99697.12;102787;1296;61534;-82
2023/12/14 02:28:41;;;;;;;12.20;9.30;;;;;;;20.99;35.74;99686.30;102787;1299;61335;-82
2023/12/14 02:31:07;;;;;;;12.30;9.50;;;;;;;20.99;35.68;99682.55;102808;1296;62488;-82
2023/12/14 02:33:32;;;;;;;12.00;9.60;;;;;;;20.99;35.74;99692.67;102820;1296;61418;-82
2023/12/14 02:35:58;;;;;;;11.70;9.20;;;;;;;21.00;35.62;99695.50;102850;1296;61335;-82
2023/12/14 02:38:23;;;;;;;12.30;9.40;;;;;;;21.00;35.81;99683.99;102853;1298;61301;-83
2023/12/14 02:40:52;;;;;;;10.40;8.90;;;;;;;21.01;35.73;99681.13;102792;1296;61450;-81
2023/12/14 02:43:19;;;;;;;13.00;9.60;;;;;;;21.01;35.71;99687.14;102815;1293;72473;-81
2023/12/14 02:45:45;;;;;;;13.90;9.60;;;;;;;21.02;35.57;99683.14;102807;1294;61448;-81
2023/12/14 02:48:12;;;;;;;11.40;9.90;;;;;;;21.02;35.62;99684.02;102793;1296;61375;-81
2023/12/14 02:50:37;;;;;;;11.80;9.70;;;;;;;21.03;35.72;99687.20;102765;1301;61393;-81
2023/12/14 02:53:03;;;;;;;13.30;9.60;;;;;;;21.03;35.73;99684.80;102960;1295;62003;-81
2023/12/14 02:55:29;;;;;;;12.10;9.50;;;;;;;21.04;35.60;99689.60;102829;1296;61397;-83
2023/12/14 02:57:54;;;;;;;12.20;9.90;;;;;;;21.04;35.66;99683.85;102847;1300;61483;-81
2023/12/14 03:00:20;;;;;;;12.70;9.70;;;;;;;21.04;35.62;99691.02;102943;1295;61320;-82
2023/12/14 03:02:46;;;;;;;12.70;9.80;;;;;;;21.05;35.64;99690.56;102866;1298;61319;-81
2023/12/14 03:05:12;;;;;;;11.70;9.50;;;;;;;21.05;35.54;99687.85;102828;1296;61410;-83
2023/12/14 03:07:37;;;;;;;12.30;9.20;;;;;;;21.05;35.64;99677.86;102959;1295;61324;-83
2023/12/14 03:10:04;;;;;;;11.80;9.70;;;;;;;21.06;35.61;99674.21;102779;1296;61358;-83
2023/12/14 03:12:29;;;;;;;12.70;9.80;;;;;;;21.06;35.59;99678.67;102850;1296;61921;-82
2023/12/14 03:14:55;;;;;;;13.10;10.10;;;;;;;21.06;35.62;99681.34;103056;1296;61319;-82
2023/12/14 03:17:21;;;;;;;12.60;9.20;;;;;;;21.07;35.51;99680.75;102854;1296;72439;-82
2023/12/14 03:19:46;;;;;;;12.40;9.30;;;;;;;21.07;35.56;99676.94;102981;1295;61381;-82
2023/12/14 03:22:12;;;;;;;12.90;9.60;;;;;;;21.07;35.53;99674.09;103040;1298;61412;-82
2023/12/14 03:24:38;;;;;;;13.40;10.20;;;;;;;21.08;35.56;99679.95;102983;1296;61400;-82
2023/12/14 03:27:04;;;;;;;11.40;9.00;;;;;;;21.08;35.62;99676.15;103034;1296;61496;-82
2023/12/14 03:29:30;;;;;;;12.00;9.70;;;;;;;21.08;35.55;99679.33;102837;1296;62238;-83
2023/12/14 03:31:56;;;;;;;13.60;9.90;;;;;;;21.09;35.53;99681.66;103119;1298;61419;-82
2023/12/14 03:34:22;;;;;;;12.00;10.10;;;;;;;21.08;35.49;99684.17;102896;1296;61454;-82
2023/12/14 03:36:48;;;;;;;11.70;9.40;;;;;;;21.09;35.53;99681.43;102869;1295;61413;-82
2023/12/14 03:39:14;;;;;;;12.40;10.00;;;;;;;21.09;35.56;99673.89;102883;1296;61384;-82
2023/12/14 03:41:40;;;;;;;13.20;9.80;;;;;;;21.10;35.48;99672.96;102849;1294;61423;-82
2023/12/14 03:44:06;;;;;;;12.10;9.90;;;;;;;21.10;35.55;99662.20;102924;1296;61502;-82
2023/12/14 03:46:32;;;;;;;13.00;9.70;;;;;;;21.10;35.36;99663.24;102821;1301;61428;-82
2023/12/14 03:48:57;;;;;;;12.80;10.00;;;;;;;21.11;35.52;99668.40;102871;1299;62185;-81
2023/12/14 03:51:23;;;;;;;12.50;10.20;;;;;;;21.12;35.38;99667.83;102958;1296;61408;-81
2023/12/14 03:53:49;;;;;;;13.70;9.90;;;;;;;21.11;35.50;99666.05;102891;1295;61322;-82
2023/12/14 03:56:14;;;;;;;12.70;10.20;;;;;;;21.11;35.26;99668.89;102960;1295;61422;-82
2023/12/14 03:58:40;;;;;;;13.20;10.30;;;;;;;21.12;35.50;99672.63;102903;1296;61306;-82
2023/12/14 04:01:06;;;;;;;13.30;10.40;;;;;;;21.12;35.40;99671.53;102766;1295;61968;-82
2023/12/14 04:03:32;;;;;;;12.30;10.40;;;;;;;21.13;35.22;99665.56;102878;1294;61445;-82
2023/12/14 04:05:57;;;;;;;13.80;10.20;;;;;;;21.13;35.44;99662.17;103076;1298;61403;-82
2023/12/14 04:08:23;;;;;;;13.20;10.30;;;;;;;21.13;35.35;99655.91;102762;1298;61300;-82
2023/12/14 04:10:49;;;;;;;14.00;10.50;;;;;;;21.13;35.35;99662.17;102733;1298;61365;-82
2023/12/14 04:13:15;;;;;;;12.80;10.20;;;;;;;21.13;35.44;99658.20;102946;1296;61412;-81
2023/12/14 04:15:41;;;;;;;13.20;10.50;;;;;;;21.13;35.34;99656.58;102738;1298;61463;-82
2023/12/14 04:18:08;;;;;;;13.60;10.40;;;;;;;21.13;35.47;99652.46;102772;1296;61335;-82
2023/12/14 04:20:34;;;;;;;13.80;10.40;;;;;;;21.14;35.48;99650.79;102955;1296;62477;-82
2023/12/14 04:22:59;;;;;;;12.10;9.60;;;;;;;21.14;35.27;99658.67;102993;1296;61329;-82
2023/12/14 04:25:25;;;;;;;12.20;10.00;;;;;;;21.14;35.36;99665.45;102862;1296;61316;-83
2023/12/14 04:27:51;;;;;;;12.50;10.10;;;;;;;21.14;35.36;99667.60;102617;1296;74636;-82
2023/12/14 04:30:16;;;;;;;13.80;10.30;;;;;;;21.14;35.31;99668.50;102870;1296;62223;-82
2023/12/14 04:32:42;;;;;;;12.80;10.40;;;;;;;21.14;35.29;99666.89;102844;1296;61388;-82
2023/12/14 04:35:08;;;;;;;14.50;10.90;;;;;;;21.14;35.37;99669.39;102891;1298;61416;-82
2023/12/14 04:37:34;;;;;;;12.20;10.50;;;;;;;21.14;35.36;99662.77;102811;1295;61413;-82
2023/12/14 04:39:59;;;;;;;12.90;10.60;;;;;;;21.14;35.15;99662.19;102792;1296;61272;-82
2023/12/14 04:42:25;;;;;;;12.80;10.30;;;;;;;21.15;35.25;99654.47;102721;1298;61417;-82
2023/12/14 04:44:50;;;;;;;13.70;10.70;;;;;;;21.15;35.15;99651.98;102971;1296;61473;-82
2023/12/14 04:47:16;;;;;;;14.10;10.70;;;;;;;21.15;35.18;99654.29;102843;1295;62050;-83
2023/12/14 04:49:42;;;;;;;14.20;11.10;;;;;;;21.15;35.09;99663.95;102875;1298;61399;-81
2023/12/14 04:52:08;;;;;;;13.00;10.50;;;;;;;21.15;35.08;99669.34;102940;1296;62325;-81
2023/12/14 04:54:37;;;;;;;14.70;11.10;;;;;;;21.15;35.10;99665.71;102773;1300;61290;-81
2023/12/14 04:57:04;;;;;;;14.70;11.10;;;;;;;21.15;35.17;99673.03;102905;1294;73329;-82
2023/12/14 04:59:30;;;;;;;12.70;10.30;;;;;;;21.15;35.11;99672.13;102964;1298;61397;-81
2023/12/14 05:01:55;;;;;;;14.30;10.50;;;;;;;21.16;35.04;99668.88;102923;1296;61313;-82
2023/12/14 05:04:21;;;;;;;14.20;10.90;;;;;;;21.15;35.12;99660.52;102882;1296;61496;-82
2023/12/14 05:06:47;;;;;;;15.40;11.10;;;;;;;21.16;35.17;99659.92;102875;1296;61358;-82
2023/12/14 05:09:13;;;;;;;16.30;12.20;;;;;;;21.15;35.22;99669.78;103007;1299;61522;-81
2023/12/14 05:11:42;;;;;;;16.00;12.80;;;;;;;21.16;35.17;99675.45;102936;1296;74555;-81
2023/12/14 05:14:07;;;;;;;16.60;12.20;;;;;;;21.16;35.17;99668.17;102903;1296;61454;-80
2023/12/14 05:16:33;;;;;;;16.50;13.10;;;;;;;21.16;35.12;99662.64;102983;1294;61333;-81
2023/12/14 05:18:59;;;;;;;15.50;12.00;;;;;;;21.16;35.22;99668.15;103152;1298;61480;-81
2023/12/14 05:21:25;;;;;;;16.50;12.30;;;;;;;21.15;35.10;99664.08;103048;1298;61423;-82
2023/12/14 05:23:50;;;;;;;12.60;10.40;;;;;;;21.15;35.07;99652.48;103043;1294;61418;-82
2023/12/14 05:26:16;;;;;;;15.40;11.50;;;;;;;21.15;35.09;99661.59;102744;1295;61296;-82
2023/12/14 05:28:42;;;;;;;15.60;11.60;;;;;;;21.16;35.09;99660.63;102780;1295;61477;-83
2023/12/14 05:31:07;;;;;;;14.30;11.10;;;;;;;21.16;35.05;99657.73;103081;1296;61307;-83
2023/12/14 05:33:38;;;;;;;19.40;12.50;;;;;;;21.15;35.13;99658.39;103109;1296;61343;-84
2023/12/14 05:36:08;;;;;;;17.00;13.00;;;;;;;21.14;35.02;99661.21;103115;1295;61386;-83
2023/12/14 05:38:40;;;;;;;18.50;14.10;;;;;;;21.10;34.97;99667.36;103391;1296;61911;-81
2023/12/14 05:41:05;;;;;;;18.80;14.00;;;;;;;21.08;34.78;99665.08;103037;1296;73665;-81
2023/12/14 05:43:31;;;;;;;20.30;14.70;;;;;;;21.07;34.80;99668.05;103435;1295;61409;-82
2023/12/14 05:45:57;;;;;;;22.30;15.00;;;;;;;21.04;34.88;99666.64;103622;1299;61423;-80
2023/12/14 05:48:22;;;;;;;20.90;16.00;;;;;;;21.01;34.69;99667.79;103852;1296;61256;-81
2023/12/14 05:50:48;;;;;;;22.80;16.40;;;;;;;20.99;34.79;99661.58;103684;1295;61413;-80
2023/12/14 05:53:14;;;;;;;24.30;17.20;;;;;;;20.97;34.69;99660.18;103916;1294;63322;-79
2023/12/14 05:55:40;;;;;;;23.80;16.90;;;;;;;20.95;34.78;99660.35;103960;1296;74364;-81
2023/12/14 05:58:14;;;;;;;24.10;18.90;;;;;;;20.91;34.65;99651.20;103690;1300;61170;-79
2023/12/14 06:00:40;;;;;;;27.20;19.70;;;;;;;20.84;34.64;99651.80;103768;1296;61410;-80
2023/12/14 06:03:06;;;;;;;34.40;21.30;;;;;;;20.80;34.64;99654.13;103643;1299;61397;-79
2023/12/14 06:05:32;;;;;;;33.10;20.90;;;;;;;20.76;34.69;99658.58;104001;1296;61312;-79
2023/12/14 06:07:58;;;;;;;35.00;24.80;;;;;;;20.74;34.62;99673.06;103946;1301;61611;-81
2023/12/14 06:10:24;;;;;;;37.40;24.50;;;;;;;20.73;34.47;99692.47;103582;1296;61419;-80
2023/12/14 06:12:49;;;;;;;34.90;22.80;;;;;;;20.72;34.53;99688.96;103792;1294;61312;-82
2023/12/14 06:15:15;;;;;;;35.90;23.80;;;;;;;20.72;34.41;99683.04;103709;1298;72516;-81
2023/12/14 06:17:42;;;;;;;32.10;22.50;;;;;;;20.73;34.37;99680.08;103976;1298;62513;-83
2023/12/14 06:20:08;;;;;;;29.80;22.10;;;;;;;20.75;34.37;99680.11;104516;1296;61601;-82
2023/12/14 06:22:37;;;;;;;32.40;21.70;;;;;;;20.76;34.41;99682.70;104016;1295;60054;-81
2023/12/14 06:25:05;;;;;;;29.90;21.50;;;;;;;20.79;34.42;99692.31;103923;1294;72760;-80
2023/12/14 06:27:31;;;;;;;30.80;21.70;;;;;;;20.82;34.49;99704.94;103579;1294;74493;-80
2023/12/14 06:29:57;;;;;;;31.30;22.00;;;;;;;20.86;34.36;99712.50;103484;1294;60412;-80
2023/12/14 06:32:22;;;;;;;29.60;21.70;;;;;;;20.89;34.45;99711.48;103731;1296;63961;-81
2023/12/14 06:34:48;;;;;;;27.70;20.30;;;;;;;20.91;34.46;99705.23;104088;1295;61310;-82
2023/12/14 06:37:14;;;;;;;30.30;20.80;;;;;;;20.93;34.33;99693.94;103982;1295;61276;-82
2023/12/14 06:39:43;;;;;;;30.90;21.10;;;;;;;20.95;34.40;99691.98;104112;1299;61380;-81
2023/12/14 06:42:08;;;;;;;31.60;21.00;;;;;;;20.97;34.43;99704.29;104131;1298;61333;-81
2023/12/14 06:44:34;;;;;;;30.40;20.70;;;;;;;20.99;34.45;99703.41;103756;1296;59298;-82
2023/12/14 06:46:59;;;;;;;29.50;20.60;;;;;;;21.01;34.40;99692.19;103948;1298;61275;-80
2023/12/14 06:49:25;;;;;;;27.90;20.00;;;;;;;21.02;34.33;99687.79;103723;1296;61480;-81
2023/12/14 06:51:51;;;;;;;27.80;19.80;;;;;;;21.03;34.41;99701.64;103769;1294;61376;-81
2023/12/14 06:54:17;;;;;;;28.00;19.90;;;;;;;21.04;34.40;99703.49;103813;1294;61464;-82
2023/12/14 06:56:44;;;;;;;24.80;16.70;;;;;;;21.05;34.48;99700.96;104023;1299;60441;-81
2023/12/14 06:59:09;;;;;;;30.40;18.70;;;;;;;21.07;34.91;99699.86;104038;1293;72454;-81
2023/12/14 07:01:35;;;;;;;29.10;19.00;;;;;;;21.07;35.04;99703.11;103906;1295;59744;-82
2023/12/14 07:04:03;;;;;;;28.00;19.60;;;;;;;21.05;35.22;99711.98;104193;1295;61439;-81
2023/12/14 07:06:28;;;;;;;31.20;20.30;;;;;;;21.03;35.18;99708.27;103699;1294;61371;-80
2023/12/14 07:08:54;;;;;;;29.40;19.80;;;;;;;21.02;35.11;99715.73;103870;1297;61297;-81
2023/12/14 07:11:20;;;;;;;36.60;20.50;;;;;;;20.99;35.09;99706.25;103605;1299;61489;-81
2023/12/14 07:13:46;;;;;;;28.70;18.90;;;;;;;20.98;35.15;99708.21;104035;1294;59415;-81
2023/12/14 07:16:11;;;;;;;25.80;18.50;;;;;;;20.97;34.97;99712.93;103955;1296;61375;-80
2023/12/14 07:18:41;;;;;;;29.80;18.90;;;;;;;20.96;35.12;99719.94;103760;1294;61324;-80
2023/12/14 07:21:06;;;;;;;;;;;;;;;20.97;35.01;99727.76;104012;1294;73612;-82
2023/12/14 07:23:32;;;;;;;25.20;18.20;;;;;;;20.95;34.93;99738.34;103753;1298;62872;-82
2023/12/14 07:25:57;;;;;;;29.30;20.50;;;;;;;20.97;35.07;99740.33;103836;1294;61361;-82
2023/12/14 07:28:23;;;;;;;27.10;18.80;;;;;;;20.96;34.78;99749.27;103831;1295;61415;-82
2023/12/14 07:30:49;;;;;;;24.20;18.30;;;;;;;20.97;34.92;99751.02;103991;1296;59946;-82
2023/12/14 07:33:15;;;;;;;29.90;18.70;;;;;;;20.99;34.89;99747.48;103812;1299;72586;-83
2023/12/14 07:35:41;;;;;;;27.10;18.60;;;;;;;20.99;34.74;99749.91;103083;1294;663059;-82
2023/12/14 07:38:09;;;;;;;26.10;17.80;;;;;;;21.00;34.75;99753.59;103292;1297;61306;-79
2023/12/14 07:40:34;;;;;;;25.00;17.60;;;;;;;21.01;34.82;99743.55;103380;1301;61406;-80
2023/12/14 07:43:00;;;;;;;27.50;18.30;;;;;;;21.02;34.96;99748.83;103479;1296;61303;-81
2023/12/14 07:45:26;;;;;;;29.20;18.00;;;;;;;21.02;34.90;99758.77;103609;1296;61413;-83
2023/12/14 07:47:52;;;;;;;24.40;17.80;;;;;;;21.03;34.94;99763.48;103593;1296;61394;-81
2023/12/14 07:50:19;;;;;;;28.60;17.40;;;;;;;21.05;34.96;99760.36;103800;1296;61243;-83
2023/12/14 07:52:44;;;;;;;28.60;17.30;;;;;;;21.05;35.14;99756.71;104030;1301;61347;-82
2023/12/14 07:55:10;;;;;;;38.00;18.60;;;;;;;21.06;35.15;99763.60;103926;1293;61499;-80
2023/12/14 07:57:35;;;;;;;31.70;18.00;;;;;;;21.08;35.35;99766.33;104114;1296;60558;-83
2023/12/14 08:00:03;;;;;;;31.60;18.20;;;;;;;21.09;35.64;99773.59;103857;1295;61394;-83
2023/12/14 08:02:29;;;;;;;29.10;17.80;;;;;;;21.09;35.91;99773.73;103875;1295;62061;-83
2023/12/14 08:04:55;;;;;;;30.10;17.80;;;;;;;21.10;36.03;99770.08;104528;1295;61387;-81
2023/12/14 08:07:20;;;;;;;28.50;18.00;;;;;;;21.11;36.20;99760.84;104577;1295;61348;-81
2023/12/14 08:09:46;;;;;;;29.70;16.50;;;;;;;21.13;36.45;99747.98;104399;1296;59348;-82
2023/12/14 08:12:13;;;;;;;28.40;18.00;;;;;;;21.14;36.49;99745.38;104167;1295;61356;-80
2023/12/14 08:14:43;;;;;;;29.50;17.50;;;;;;;21.15;36.54;99743.54;104013;1295;61390;-80
2023/12/14 08:17:10;;;;;;;31.30;18.50;;;;;;;21.16;36.49;99752.91;103288;1296;74179;-80
2023/12/14 08:19:36;;;;;;;23.90;15.80;;;;;;;21.17;36.51;99757.16;103729;1294;61397;-80
2023/12/14 08:22:02;;;;;;;26.20;15.30;;;;;;;21.18;36.72;99750.59;103675;1295;61399;-79
2023/12/14 08:24:29;;;;;;;29.60;17.20;;;;;;;21.19;36.81;99748.52;103569;1295;60405;-79
2023/12/14 08:26:55;;;;;;;23.20;16.70;;;;;;;21.20;36.83;99746.32;103417;1296;61336;-81
2023/12/14 08:29:22;;;;;;;24.80;16.00;;;;;;;21.21;36.83;99761.04;103614;1299;61364;-80
2023/12/14 08:31:48;;;;;;;24.80;16.70;;;;;;;21.22;36.91;99757.95;103972;1298;61408;-80
2023/12/14 08:34:14;;;;;;;25.20;16.60;;;;;;;21.22;37.00;99759.59;103736;1296;61287;-80
2023/12/14 08:36:41;;;;;;;28.20;16.80;;;;;;;21.22;36.91;99759.50;103807;1298;61292;-81
2023/12/14 08:39:07;;;;;;;25.10;16.80;;;;;;;21.22;36.98;99761.27;103585;1295;61398;-80
2023/12/14 08:41:32;;;;;;;25.50;15.40;;;;;;;21.23;37.01;99763.23;103394;1301;61355;-79
2023/12/14 08:43:58;;;;;;;24.40;16.00;;;;;;;21.23;37.19;99782.87;103623;1294;61422;-80
2023/12/14 08:46:23;;;;;;;23.00;17.00;;;;;;;21.24;37.06;99794.45;103502;1293;72518;-80
2023/12/14 08:48:49;;;;;;;27.10;16.30;;;;;;;21.24;37.06;99806.46;103258;1299;61316;-79
2023/12/14 08:51:15;;;;;;;21.80;15.20;;;;;;;21.24;37.02;99820.05;103265;1296;61391;-81
2023/12/14 08:53:40;;;;;;;28.10;17.20;;;;;;;21.24;37.20;99820.71;103741;1294;61279;-80
2023/12/14 08:56:08;;;;;;;26.80;15.40;;;;;;;21.24;37.24;99822.52;103693;1299;61483;-81
2023/12/14 08:58:33;;;;;;;36.00;17.00;;;;;;;21.25;37.35;99822.80;103741;1296;61460;-80
2023/12/14 09:00:59;;;;;;;36.00;17.20;;;;;;;21.24;37.47;99820.63;103634;1295;61425;-82
2023/12/14 09:03:26;;;;;;;36.10;17.10;;;;;;;21.22;37.78;99817.34;103518;1295;61469;-80
2023/12/14 09:05:52;;;;;;;29.30;16.00;;;;;;;21.18;38.20;99806.73;103361;1294;61486;-79
2023/12/14 09:08:18;;;;;;;36.80;16.60;;;;;;;21.16;38.14;99804.29;103584;1299;61494;-80
2023/12/14 09:10:44;;;;;;;24.20;15.90;;;;;;;21.13;38.25;99807.92;103628;1296;61329;-82
2023/12/14 09:13:10;;;;;;;31.20;16.00;;;;;;;21.11;38.09;99809.73;103577;1295;61347;-80
2023/12/14 09:15:36;;;;;;;27.50;16.20;;;;;;;21.09;38.03;99818.16;103464;1294;61345;-80
2023/12/14 09:18:02;;;;;;;37.60;16.20;;;;;;;21.05;38.03;99811.66;103772;1296;61396;-80
2023/12/14 09:20:28;;;;;;;40.40;16.50;;;;;;;21.04;38.43;99813.90;103200;1294;61486;-80
2023/12/14 09:22:54;;;;;;;32.00;16.30;;;;;;;21.04;38.60;99813.55;103458;1294;59609;-82
2023/12/14 09:25:19;;;;;;;39.70;17.20;;;;;;;21.03;38.73;99825.62;103325;1296;61302;-79
2023/12/14 09:27:45;;;;;;;40.70;18.10;;;;;;;21.03;38.83;99824.40;103534;1298;61325;-80
2023/12/14 09:30:11;;;;;;;31.50;18.00;;;;;;;21.02;39.05;99814.30;103450;1299;61409;-79
2023/12/14 09:32:37;;;;;;;35.40;16.00;;;;;;;21.00;38.98;99801.71;103416;1296;61860;-81
2023/12/14 09:35:03;;;;;;;27.30;15.50;;;;;;;20.98;38.87;99800.80;103558;1296;61329;-79
2023/12/14 09:37:29;;;;;;;23.90;14.90;;;;;;;20.96;38.65;99811.23;103338;1296;61860;-81
2023/12/14 09:39:54;;;;;;;30.00;15.80;;;;;;;20.93;38.67;99808.59;103548;1299;61463;-80
2023/12/14 09:42:20;;;;;;;23.20;15.30;;;;;;;20.90;38.40;99808.69;103659;1296;72256;-80
2023/12/14 09:44:47;;;;;;;25.40;16.10;;;;;;;20.86;38.27;99820.62;103720;1298;61285;-81
2023/12/14 09:47:14;;;;;;;29.90;17.20;;;;;;;20.81;38.14;99803.55;103496;1295;61778;-81
2023/12/14 09:49:42;;;;;;;21.00;14.80;;;;;;;20.75;38.02;99807.56;103458;1296;61374;-81
2023/12/14 09:52:09;;;;;;;28.90;18.10;;;;;;;20.71;37.77;99798.98;103844;1302;71831;-80
2023/12/14 09:54:34;;;;;;;30.50;18.50;;;;;;;20.66;37.64;99803.56;103827;1301;61301;-80
2023/12/14 09:57:00;;;;;;;52.30;17.60;;;;;;;20.61;37.66;99806.48;104076;1294;60191;-81
2023/12/14 09:59:25;;;;;;;39.40;18.00;;;;;;;20.60;38.37;99805.96;104356;1299;61282;-80
2023/12/14 10:01:51;;;;;;;36.60;17.60;;;;;;;20.59;38.60;99800.53;104287;1299;61304;-80
2023/12/14 10:04:18;;;;;;;32.70;17.10;;;;;;;20.58;38.76;99796.67;104321;1298;61352;-81
2023/12/14 10:06:45;;;;;;;32.20;17.10;;;;;;;20.59;38.76;99795.88;103781;1299;74187;-81
2023/12/14 10:09:13;;;;;;;33.60;18.00;;;;;;;20.58;38.84;99799.34;104137;1296;61419;-81
2023/12/14 10:11:39;;;;;;;27.10;15.60;;;;;;;20.56;38.51;99801.64;103792;1295;61195;-83
2023/12/14 10:14:22;;;;;;;29.60;15.90;;;;;;;20.51;38.55;99803.55;104347;1300;72605;-82
2023/12/14 10:16:49;;;;;;;25.80;16.00;;;;;;;20.48;38.51;99806.89;104362;1299;74451;-81
2023/12/14 10:19:16;;;;;;;30.50;15.20;;;;;;;20.46;38.51;99800.93;104650;1300;61263;-80
2023/12/14 10:21:42;;;;;;;29.00;15.60;;;;;;;20.44;38.57;99804.11;104707;1294;61406;-81
2023/12/14 10:24:08;;;;;;;29.30;15.10;;;;;;;20.43;38.47;99813.08;104171;1296;61307;-82
2023/12/14 10:26:33;;;;;;;24.20;15.80;;;;;;;20.45;38.64;99827.12;104082;1296;59976;-83
2023/12/14 10:28:59;;;;;;;32.60;15.90;;;;;;;20.47;38.60;99819.46;103979;1299;59547;-80
2023/12/14 10:31:26;;;;;;;32.10;15.40;;;;;;;20.47;38.68;99822.30;104386;1296;61282;-82
2023/12/14 10:33:51;;;;;;;28.90;14.40;;;;;;;20.44;38.59;99820.77;104670;1296;59154;-81
2023/12/14 10:36:18;;;;;;;26.80;13.70;;;;;;;20.42;38.57;99822.48;104692;1295;61403;-81
2023/12/14 10:38:45;;;;;;;22.80;14.40;;;;;;;20.42;38.70;99830.92;104658;1299;74496;-81
2023/12/14 10:41:11;;;;;;;22.50;14.10;;;;;;;20.40;38.81;99834.12;105316;1301;60488;-81
2023/12/14 10:43:37;;;;;;;28.90;13.90;;;;;;;20.41;38.81;99840.48;104287;1294;61269;-82
2023/12/14 10:46:07;;;;;;;20.50;13.10;;;;;;;20.42;38.99;99851.27;104403;1296;61505;-83
2023/12/14 10:48:34;;;;;;;21.80;13.40;;;;;;;20.43;38.81;99843.17;104481;1295;75219;-79
2023/12/14 10:51:01;;;;;;;26.80;13.90;;;;;;;20.44;38.78;99844.36;104329;1299;60395;-80
2023/12/14 10:53:27;;;;;;;22.90;12.70;;;;;;;20.44;38.82;99850.91;104704;1298;61197;-81
2023/12/14 10:55:53;;;;;;;21.30;13.40;;;;;;;20.43;38.61;99842.95;104055;1296;61279;-81
2023/12/14 10:58:19;;;;;;;20.60;13.50;;;;;;;20.42;38.44;99839.70;104457;1295;61305;-81
2023/12/14 11:01:05;;;;;;;30.30;13.20;;;;;;;20.42;38.55;99846.27;103802;1299;61250;-81
2023/12/14 11:03:34;;;;;;;28.80;12.60;;;;;;;20.43;38.58;99844.07;105194;1294;60017;-80
2023/12/14 11:06:00;;;;;;;;;;;;;;;20.38;38.51;99850.35;105083;1295;71716;-80